createdAt,value
2023-05-08T00:00:08.430Z,979.71
2023-05-08T00:00:36.831Z,979.71
2023-05-08T00:01:09.044Z,979.92
2023-05-08T00:01:40.983Z,979.92
2023-05-08T00:02:13.052Z,979.92
2023-05-08T00:02:45.487Z,979.92
2023-05-08T00:03:17.241Z,979.82
2023-05-08T00:03:33.211Z,979.82
2023-05-08T00:04:16.997Z,979.82
2023-05-08T00:04:48.971Z,979.82
2023-05-08T00:05:21.118Z,979.71
2023-05-08T00:05:52.980Z,979.71
2023-05-08T00:06:24.873Z,980.02
2023-05-08T00:06:56.885Z,980.02
2023-05-08T00:07:28.956Z,980.02
2023-05-08T00:08:00.687Z,979.82
2023-05-08T00:08:16.934Z,979.82
2023-05-08T00:08:48.662Z,979.82
2023-05-08T00:09:05.190Z,979.82
2023-05-08T00:09:36.690Z,979.82
2023-05-08T00:10:08.932Z,980.02
2023-05-08T00:10:40.714Z,980.02
2023-05-08T00:11:12.622Z,979.92
2023-05-08T00:11:44.731Z,979.92
2023-05-08T00:12:16.516Z,980.02
2023-05-08T00:12:32.595Z,980.02
2023-05-08T00:13:04.970Z,980.12
2023-05-08T00:13:48.475Z,980.12
2023-05-08T00:14:20.395Z,980.02
2023-05-08T00:14:52.437Z,980.02
2023-05-08T00:15:25.076Z,979.92
2023-05-08T00:15:56.453Z,979.92
2023-05-08T00:16:28.338Z,979.92
2023-05-08T00:17:00.595Z,979.92
2023-05-08T00:17:16.361Z,980.02
2023-05-08T00:18:00.551Z,980.02
2023-05-08T00:18:32.345Z,980.02
2023-05-08T00:19:04.682Z,980.12
2023-05-08T00:19:36.314Z,980.12
2023-05-08T00:20:08.751Z,979.61
2023-05-08T00:20:40.188Z,979.61
2023-05-08T00:21:12.238Z,979.92
2023-05-08T00:21:44.188Z,979.92
2023-05-08T00:22:16.100Z,979.92
2023-05-08T00:22:48.171Z,979.92
2023-05-08T00:23:20.148Z,979.92
2023-05-08T00:23:51.889Z,979.92
2023-05-08T00:24:24.224Z,979.82
2023-05-08T00:24:56.124Z,979.82
2023-05-08T00:25:28.282Z,980.12
2023-05-08T00:26:00.053Z,980.12
2023-05-08T00:26:16.073Z,979.92
2023-05-08T00:26:47.813Z,979.92
2023-05-08T00:27:04.489Z,979.82
2023-05-08T00:27:36.096Z,979.82
2023-05-08T00:28:07.870Z,980.12
2023-05-08T00:28:40.190Z,980.12
2023-05-08T00:29:11.997Z,980.02
2023-05-08T00:29:43.911Z,980.02
2023-05-08T00:30:16.799Z,979.92
2023-05-08T00:30:31.860Z,979.92
2023-05-08T00:31:04.069Z,980.22
2023-05-08T00:31:47.894Z,980.22
2023-05-08T00:32:20.095Z,979.92
2023-05-08T00:32:51.621Z,979.92
2023-05-08T00:33:23.924Z,980.12
2023-05-08T00:33:55.705Z,980.12
2023-05-08T00:34:27.660Z,980.12
2023-05-08T00:34:59.672Z,980.12
2023-05-08T00:35:16.151Z,980.02
2023-05-08T00:35:59.699Z,980.02
2023-05-08T00:36:31.527Z,980.02
2023-05-08T00:37:04.271Z,980.12
2023-05-08T00:37:35.536Z,980.12
2023-05-08T00:38:07.433Z,980.02
2023-05-08T00:38:39.520Z,980.02
2023-05-08T00:39:11.498Z,979.92
2023-05-08T00:39:43.334Z,979.92
2023-05-08T00:40:15.940Z,979.92
2023-05-08T00:40:47.407Z,979.92
2023-05-08T00:41:19.358Z,979.92
2023-05-08T00:41:51.293Z,979.92
2023-05-08T00:42:23.256Z,980.02
2023-05-08T00:42:55.264Z,980.02
2023-05-08T00:43:27.314Z,980.02
2023-05-08T00:43:59.291Z,980.02
2023-05-08T00:44:31.098Z,980.02
2023-05-08T00:45:06.302Z,980.22
2023-05-08T00:45:35.345Z,980.22
2023-05-08T00:46:07.035Z,979.92
2023-05-08T00:46:39.231Z,979.92
2023-05-08T00:47:11.064Z,979.82
2023-05-08T00:47:43.114Z,979.82
2023-05-08T00:48:15.253Z,980.12
2023-05-08T00:48:31.088Z,980.12
2023-05-08T00:49:03.800Z,980.02
2023-05-08T00:49:47.057Z,980.02
2023-05-08T00:50:19.305Z,980.02
2023-05-08T00:50:50.978Z,980.02
2023-05-08T00:51:22.911Z,980.12
2023-05-08T00:51:55.068Z,980.12
2023-05-08T00:52:26.959Z,979.92
2023-05-08T00:52:59.025Z,979.92
2023-05-08T00:53:15.584Z,980.02
2023-05-08T00:53:59.117Z,980.02
2023-05-08T00:54:30.935Z,979.92
2023-05-08T00:55:03.873Z,980.02
2023-05-08T00:55:34.691Z,980.02
2023-05-08T00:56:06.686Z,980.02
2023-05-08T00:56:38.829Z,980.02
2023-05-08T00:57:10.521Z,980.22
2023-05-08T00:57:42.646Z,980.22
2023-05-08T00:58:14.936Z,980.02
2023-05-08T00:58:46.692Z,980.02
2023-05-08T00:59:18.549Z,980.02
2023-05-08T00:59:50.617Z,980.02
2023-05-08T01:00:22.950Z,980.02
2023-05-08T01:00:55.529Z,980.02
2023-05-08T01:01:26.679Z,980.22
2023-05-08T01:01:58.366Z,980.22
2023-05-08T01:02:30.683Z,980.02
2023-05-08T01:03:03.161Z,980.32
2023-05-08T01:03:34.390Z,980.32
2023-05-08T01:04:06.356Z,980.02
2023-05-08T01:04:38.379Z,980.02
2023-05-08T01:05:11.028Z,980.12
2023-05-08T01:05:42.410Z,980.12
2023-05-08T01:06:14.505Z,980.02
2023-05-08T01:06:30.464Z,980.02
2023-05-08T01:07:02.763Z,980.12
2023-05-08T01:07:46.340Z,980.12
2023-05-08T01:08:18.258Z,980.22
2023-05-08T01:08:50.207Z,980.22
2023-05-08T01:09:22.108Z,980.02
2023-05-08T01:09:54.483Z,980.02
2023-05-08T01:10:26.540Z,980.12
2023-05-08T01:10:58.057Z,980.12
2023-05-08T01:11:14.559Z,980.12
2023-05-08T01:11:57.995Z,980.12
2023-05-08T01:12:30.221Z,979.92
2023-05-08T01:13:02.711Z,980.12
2023-05-08T01:13:33.998Z,980.12
2023-05-08T01:14:06.027Z,980.12
2023-05-08T01:14:37.986Z,980.12
2023-05-08T01:15:11.385Z,979.92
2023-05-08T01:15:41.929Z,979.92
2023-05-08T01:16:14.139Z,980.12
2023-05-08T01:16:46.092Z,980.12
2023-05-08T01:17:17.964Z,980.02
2023-05-08T01:17:49.802Z,980.02
2023-05-08T01:18:05.969Z,980.02
2023-05-08T01:18:37.656Z,980.02
2023-05-08T01:19:21.865Z,980.43
2023-05-08T01:19:54.032Z,980.43
2023-05-08T01:20:26.119Z,980.22
2023-05-08T01:20:57.748Z,980.22
2023-05-08T01:21:29.961Z,980.22
2023-05-08T01:22:02.138Z,980.12
2023-05-08T01:22:33.580Z,980.12
2023-05-08T01:23:05.734Z,980.12
2023-05-08T01:23:37.516Z,980.12
2023-05-08T01:24:09.705Z,980.12
2023-05-08T01:24:41.503Z,980.12
2023-05-08T01:25:13.707Z,980.12
2023-05-08T01:25:45.574Z,980.12
2023-05-08T01:26:17.496Z,980.32
2023-05-08T01:26:49.499Z,980.32
2023-05-08T01:27:21.483Z,980.32
2023-05-08T01:27:53.502Z,980.32
2023-05-08T01:28:25.421Z,980.12
2023-05-08T01:28:57.284Z,980.12
2023-05-08T01:29:29.453Z,980.22
2023-05-08T01:30:04.426Z,980.32
2023-05-08T01:30:33.530Z,980.32
2023-05-08T01:31:05.512Z,980.32
2023-05-08T01:31:37.230Z,980.32
2023-05-08T01:32:09.456Z,980.12
2023-05-08T01:32:41.355Z,980.12
2023-05-08T01:33:13.236Z,980.43
2023-05-08T01:33:29.445Z,980.43
2023-05-08T01:34:13.303Z,980.22
2023-05-08T01:34:45.466Z,980.22
2023-05-08T01:35:17.327Z,980.32
2023-05-08T01:35:49.062Z,980.32
2023-05-08T01:36:21.097Z,980.22
2023-05-08T01:36:53.048Z,980.22
2023-05-08T01:37:25.117Z,980.12
2023-05-08T01:37:56.943Z,980.12
2023-05-08T01:38:28.895Z,980.32
2023-05-08T01:39:01.120Z,980.12
2023-05-08T01:39:32.878Z,980.12
2023-05-08T01:40:05.535Z,980.32
2023-05-08T01:40:36.917Z,980.32
2023-05-08T01:41:09.145Z,980.22
2023-05-08T01:41:40.672Z,980.22
2023-05-08T01:42:12.790Z,980.22
2023-05-08T01:42:28.810Z,980.22
2023-05-08T01:43:00.964Z,980.22
2023-05-08T01:43:44.913Z,980.22
2023-05-08T01:44:16.585Z,980.43
2023-05-08T01:44:48.703Z,980.43
2023-05-08T01:45:23.168Z,980.22
2023-05-08T01:45:52.648Z,980.22
2023-05-08T01:46:24.656Z,980.22
2023-05-08T01:46:56.463Z,980.22
2023-05-08T01:47:12.797Z,980.32
2023-05-08T01:47:56.632Z,980.32
2023-05-08T01:48:28.495Z,980.43
2023-05-08T01:49:00.529Z,980.43
2023-05-08T01:49:32.491Z,980.32
2023-05-08T01:50:05.394Z,980.12
2023-05-08T01:50:36.553Z,980.12
2023-05-08T01:51:08.382Z,980.22
2023-05-08T01:51:40.494Z,980.22
2023-05-08T01:52:12.484Z,980.22
2023-05-08T01:52:44.737Z,980.22
2023-05-08T01:53:16.324Z,980.43
2023-05-08T01:53:48.313Z,980.43
2023-05-08T01:54:20.376Z,980.43
2023-05-08T01:54:52.356Z,980.43
2023-05-08T01:55:24.763Z,980.22
2023-05-08T01:55:56.251Z,980.22
2023-05-08T01:56:28.292Z,980.22
2023-05-08T01:57:00.471Z,980.22
2023-05-08T01:57:31.994Z,980.32
2023-05-08T01:58:05.254Z,980.43
2023-05-08T01:58:36.164Z,980.43
2023-05-08T01:59:08.100Z,980.32
2023-05-08T01:59:40.139Z,980.32
2023-05-08T02:00:15.043Z,980.22
2023-05-08T02:00:28.212Z,980.22
2023-05-08T02:01:00.430Z,980.22
2023-05-08T02:01:44.227Z,980.22
2023-05-08T02:02:16.036Z,980.43
2023-05-08T02:02:47.945Z,980.43
2023-05-08T02:03:19.946Z,980.32
2023-05-08T02:03:52.016Z,980.32
2023-05-08T02:04:24.181Z,980.22
2023-05-08T02:04:55.860Z,980.22
2023-05-08T02:05:28.141Z,980.12
2023-05-08T02:05:59.911Z,980.12
2023-05-08T02:06:31.650Z,980.22
2023-05-08T02:07:04.652Z,980.12
2023-05-08T02:07:35.709Z,980.12
2023-05-08T02:08:07.743Z,980.32
2023-05-08T02:08:39.960Z,980.32
2023-05-08T02:09:11.767Z,980.22
2023-05-08T02:09:43.815Z,980.22
2023-05-08T02:10:16.097Z,979.92
2023-05-08T02:10:47.508Z,979.92
2023-05-08T02:11:19.617Z,980.22
2023-05-08T02:11:51.572Z,980.22
2023-05-08T02:12:23.853Z,980.12
2023-05-08T02:12:55.514Z,980.12
2023-05-08T02:13:11.680Z,980.43
2023-05-08T02:13:43.504Z,980.43
2023-05-08T02:13:59.628Z,980.43
2023-05-08T02:14:31.488Z,980.12
2023-05-08T02:15:06.540Z,980.12
2023-05-08T02:15:35.556Z,980.12
2023-05-08T02:16:07.448Z,980.32
2023-05-08T02:16:39.709Z,980.32
2023-05-08T02:17:11.214Z,980.12
2023-05-08T02:17:27.465Z,980.12
2023-05-08T02:17:59.420Z,980.12
2023-05-08T02:18:43.492Z,980.12
2023-05-08T02:19:15.615Z,980.22
2023-05-08T02:19:47.140Z,980.22
2023-05-08T02:20:19.548Z,980.32
2023-05-08T02:20:51.251Z,980.32
2023-05-08T02:21:23.277Z,980.02
2023-05-08T02:21:55.332Z,980.02
2023-05-08T02:22:27.014Z,980.22
2023-05-08T02:22:59.278Z,980.22
2023-05-08T02:23:31.271Z,980.32
2023-05-08T02:24:04.228Z,980.12
2023-05-08T02:24:35.153Z,980.12
2023-05-08T02:25:07.324Z,980.22
2023-05-08T02:25:39.326Z,980.22
2023-05-08T02:26:11.025Z,980.12
2023-05-08T02:26:27.008Z,980.12
2023-05-08T02:27:10.959Z,980.32
2023-05-08T02:27:42.959Z,980.32
2023-05-08T02:28:15.006Z,980.22
2023-05-08T02:28:46.809Z,980.22
2023-05-08T02:29:18.847Z,980.32
2023-05-08T02:29:50.874Z,980.32
2023-05-08T02:30:23.128Z,980.32
2023-05-08T02:30:54.817Z,980.32
2023-05-08T02:31:26.717Z,980.43
2023-05-08T02:31:58.708Z,980.43
2023-05-08T02:32:30.859Z,980.22
2023-05-08T02:33:03.223Z,980.22
2023-05-08T02:33:34.739Z,980.22
2023-05-08T02:34:06.669Z,980.43
2023-05-08T02:34:45.250Z,980.43
2023-05-08T02:35:11.785Z,980.53
2023-05-08T02:35:26.530Z,980.53
2023-05-08T02:35:58.809Z,980.53
2023-05-08T02:36:42.566Z,980.43
2023-05-08T02:37:14.647Z,980.43
2023-05-08T02:37:46.398Z,980.43
2023-05-08T02:38:18.566Z,980.22
2023-05-08T02:38:50.731Z,980.22
2023-05-08T02:39:22.543Z,980.43
2023-05-08T02:39:54.596Z,980.43
2023-05-08T02:40:11.205Z,980.32
2023-05-08T02:40:54.688Z,980.32
2023-05-08T02:41:26.288Z,980.12
2023-05-08T02:41:58.391Z,980.12
2023-05-08T02:42:30.231Z,980.43
2023-05-08T02:43:02.528Z,980.53
2023-05-08T02:43:34.375Z,980.53
2023-05-08T02:44:06.339Z,980.32
2023-05-08T02:44:38.073Z,980.32
2023-05-08T02:45:11.635Z,980.22
2023-05-08T02:45:42.240Z,980.22
2023-05-08T02:46:14.343Z,980.32
2023-05-08T02:46:46.072Z,980.32
2023-05-08T02:47:18.332Z,980.53
2023-05-08T02:47:50.257Z,980.53
2023-05-08T02:48:22.128Z,980.22
2023-05-08T02:48:54.088Z,980.22
2023-05-08T02:49:10.215Z,980.22
2023-05-08T02:49:42.252Z,980.22
2023-05-08T02:50:26.250Z,980.22
2023-05-08T02:50:58.013Z,980.22
2023-05-08T02:51:30.065Z,980.22
2023-05-08T02:52:02.042Z,980.53
2023-05-08T02:52:33.988Z,980.53
2023-05-08T02:53:05.910Z,980.43
2023-05-08T02:53:37.736Z,980.43
2023-05-08T02:54:10.078Z,980.63
2023-05-08T02:54:41.800Z,980.63
2023-05-08T02:55:14.194Z,980.22
2023-05-08T02:55:45.711Z,980.22
2023-05-08T02:56:17.618Z,980.32
2023-05-08T02:56:49.800Z,980.32
2023-05-08T02:57:21.731Z,980.53
2023-05-08T02:57:53.518Z,980.53
2023-05-08T02:58:09.950Z,980.53
2023-05-08T02:58:53.590Z,980.53
2023-05-08T02:59:25.690Z,980.43
2023-05-08T02:59:57.591Z,980.43
2023-05-08T03:00:29.880Z,980.32
2023-05-08T03:01:01.629Z,980.43
2023-05-08T03:01:33.654Z,980.43
2023-05-08T03:02:05.971Z,980.43
2023-05-08T03:02:37.519Z,980.43
2023-05-08T03:03:09.779Z,980.22
2023-05-08T03:03:41.534Z,980.22
2023-05-08T03:04:13.552Z,980.22
2023-05-08T03:04:45.440Z,980.22
2023-05-08T03:05:17.537Z,980.22
2023-05-08T03:05:49.415Z,980.22
2023-05-08T03:06:21.358Z,980.32
2023-05-08T03:06:53.259Z,980.32
2023-05-08T03:07:25.378Z,980.32
2023-05-08T03:07:41.386Z,980.32
2023-05-08T03:08:25.370Z,980.43
2023-05-08T03:08:57.220Z,980.43
2023-05-08T03:09:29.086Z,980.22
2023-05-08T03:10:02.513Z,980.22
2023-05-08T03:10:33.349Z,980.22
2023-05-08T03:11:05.717Z,980.32
2023-05-08T03:11:36.926Z,980.32
2023-05-08T03:12:09.160Z,980.43
2023-05-08T03:12:25.247Z,980.43
2023-05-08T03:12:56.898Z,980.43
2023-05-08T03:13:41.402Z,980.12
2023-05-08T03:14:13.009Z,980.32
2023-05-08T03:14:44.973Z,980.32
2023-05-08T03:15:19.300Z,980.32
2023-05-08T03:15:49.332Z,980.32
2023-05-08T03:16:20.998Z,980.22
2023-05-08T03:16:52.885Z,980.22
2023-05-08T03:17:25.095Z,980.32
2023-05-08T03:17:56.850Z,980.32
2023-05-08T03:18:28.914Z,980.32
2023-05-08T03:19:01.173Z,980.32
2023-05-08T03:19:32.751Z,980.12
2023-05-08T03:20:05.552Z,980.32
2023-05-08T03:20:36.605Z,980.32
2023-05-08T03:21:08.684Z,980.22
2023-05-08T03:21:41.006Z,980.22
2023-05-08T03:22:12.751Z,980.43
2023-05-08T03:22:44.626Z,980.43
2023-05-08T03:23:16.689Z,980.32
2023-05-08T03:23:48.674Z,980.32
2023-05-08T03:24:20.493Z,980.22
2023-05-08T03:24:52.487Z,980.22
2023-05-08T03:25:09.149Z,980.43
2023-05-08T03:25:40.661Z,980.43
2023-05-08T03:25:56.677Z,980.43
2023-05-08T03:26:28.378Z,980.22
2023-05-08T03:27:00.631Z,980.22
2023-05-08T03:27:32.351Z,980.12
2023-05-08T03:28:05.407Z,980.22
2023-05-08T03:28:36.258Z,980.22
2023-05-08T03:29:08.343Z,980.12
2023-05-08T03:29:24.632Z,980.12
2023-05-08T03:29:56.410Z,980.12
2023-05-08T03:30:40.803Z,980.22
2023-05-08T03:31:12.116Z,980.43
2023-05-08T03:31:44.356Z,980.43
2023-05-08T03:32:16.293Z,980.43
2023-05-08T03:32:48.291Z,980.43
2023-05-08T03:33:20.189Z,980.12
2023-05-08T03:33:52.075Z,980.12
2023-05-08T03:34:24.342Z,980.32
2023-05-08T03:34:56.744Z,980.32
2023-05-08T03:35:28.192Z,980.12
2023-05-08T03:36:00.012Z,980.12
2023-05-08T03:36:32.140Z,980.32
2023-05-08T03:37:04.917Z,980.32
2023-05-08T03:37:35.824Z,980.32
2023-05-08T03:38:08.127Z,980.12
2023-05-08T03:38:40.098Z,980.12
2023-05-08T03:39:11.871Z,980.32
2023-05-08T03:39:44.006Z,980.32
2023-05-08T03:40:16.194Z,980.32
2023-05-08T03:40:47.856Z,980.32
2023-05-08T03:41:20.501Z,980.32
2023-05-08T03:41:51.722Z,980.32
2023-05-08T03:42:07.954Z,980.22
2023-05-08T03:42:40.248Z,980.22
2023-05-08T03:43:23.862Z,980.43
2023-05-08T03:43:56.099Z,980.43
2023-05-08T03:44:27.636Z,980.43
2023-05-08T03:44:59.775Z,980.43
2023-05-08T03:45:32.077Z,980.32
2023-05-08T03:46:04.745Z,980.43
2023-05-08T03:46:35.778Z,980.43
2023-05-08T03:47:07.851Z,980.22
2023-05-08T03:47:23.818Z,980.22
2023-05-08T03:47:55.851Z,980.22
2023-05-08T03:48:39.772Z,980.32
2023-05-08T03:49:11.514Z,980.32
2023-05-08T03:49:43.421Z,980.32
2023-05-08T03:50:15.727Z,980.32
2023-05-08T03:50:47.429Z,980.32
2023-05-08T03:51:19.520Z,980.43
2023-05-08T03:51:51.290Z,980.43
2023-05-08T03:52:07.502Z,980.32
2023-05-08T03:52:51.341Z,980.32
2023-05-08T03:53:23.514Z,980.12
2023-05-08T03:53:55.462Z,980.12
2023-05-08T03:54:27.211Z,980.32
2023-05-08T03:54:59.442Z,980.32
2023-05-08T03:55:31.672Z,980.22
2023-05-08T03:56:03.721Z,980.43
2023-05-08T03:56:35.459Z,980.43
2023-05-08T03:57:07.446Z,980.22
2023-05-08T03:57:39.350Z,980.22
2023-05-08T03:58:11.120Z,980.32
2023-05-08T03:58:43.103Z,980.32
2023-05-08T03:59:15.266Z,980.32
2023-05-08T03:59:47.164Z,980.32
2023-05-08T04:00:26.807Z,980.43
2023-05-08T04:00:51.183Z,980.43
2023-05-08T04:01:23.024Z,980.32
2023-05-08T04:01:55.197Z,980.32
2023-05-08T04:02:27.046Z,980.22
2023-05-08T04:02:58.910Z,980.22
2023-05-08T04:03:31.095Z,980.22
2023-05-08T04:04:03.656Z,980.43
2023-05-08T04:04:34.946Z,980.43
2023-05-08T04:05:06.991Z,980.43
2023-05-08T04:05:22.977Z,980.43
2023-05-08T04:05:55.096Z,980.43
2023-05-08T04:06:49.515Z,980.22
2023-05-08T04:07:10.788Z,980.22
2023-05-08T04:07:42.595Z,980.22
2023-05-08T04:08:14.927Z,980.43
2023-05-08T04:08:46.715Z,980.43
2023-05-08T04:09:18.497Z,980.43
2023-05-08T04:09:50.737Z,980.43
2023-05-08T04:10:23.507Z,980.43
2023-05-08T04:10:54.884Z,980.43
2023-05-08T04:11:26.615Z,980.32
2023-05-08T04:11:58.559Z,980.32
2023-05-08T04:12:30.585Z,980.43
2023-05-08T04:13:03.625Z,980.32
2023-05-08T04:13:34.538Z,980.32
2023-05-08T04:14:06.471Z,980.22
2023-05-08T04:14:40.514Z,980.22
2023-05-08T04:15:12.275Z,980.63
2023-05-08T04:15:42.273Z,980.63
2023-05-08T04:16:14.727Z,980.53
2023-05-08T04:16:46.587Z,980.53
2023-05-08T04:17:18.321Z,980.43
2023-05-08T04:17:50.598Z,980.43
2023-05-08T04:18:06.383Z,980.53
2023-05-08T04:18:38.614Z,980.53
2023-05-08T04:19:22.425Z,980.22
2023-05-08T04:19:54.265Z,980.22
2023-05-08T04:20:26.527Z,980.63
2023-05-08T04:20:58.430Z,980.63
2023-05-08T04:21:30.416Z,980.53
2023-05-08T04:22:03.096Z,980.63
2023-05-08T04:22:34.321Z,980.63
2023-05-08T04:23:06.265Z,980.43
2023-05-08T04:23:38.247Z,980.43
2023-05-08T04:24:10.447Z,980.53
2023-05-08T04:24:42.074Z,980.53
2023-05-08T04:25:14.975Z,980.63
2023-05-08T04:25:46.238Z,980.63
2023-05-08T04:26:18.264Z,980.63
2023-05-08T04:26:50.205Z,980.63
2023-05-08T04:27:06.289Z,980.43
2023-05-08T04:27:50.271Z,980.43
2023-05-08T04:28:22.022Z,980.63
2023-05-08T04:28:54.188Z,980.63
2023-05-08T04:29:26.028Z,980.53
2023-05-08T04:29:58.017Z,980.53
2023-05-08T04:30:32.007Z,980.63
2023-05-08T04:31:02.456Z,980.73
2023-05-08T04:31:33.941Z,980.73
2023-05-08T04:32:06.126Z,980.73
2023-05-08T04:32:21.989Z,980.73
2023-05-08T04:33:06.195Z,980.53
2023-05-08T04:33:37.937Z,980.53
2023-05-08T04:34:09.860Z,980.93
2023-05-08T04:34:41.731Z,980.93
2023-05-08T04:35:14.476Z,980.73
2023-05-08T04:35:45.863Z,980.73
2023-05-08T04:36:17.646Z,980.63
2023-05-08T04:36:49.770Z,980.63
2023-05-08T04:37:21.702Z,980.73
2023-05-08T04:37:53.830Z,980.73
2023-05-08T04:38:25.946Z,980.63
2023-05-08T04:38:59.010Z,980.63
2023-05-08T04:39:29.720Z,980.63
2023-05-08T04:40:02.562Z,980.83
2023-05-08T04:40:33.449Z,980.83
2023-05-08T04:41:05.824Z,980.73
2023-05-08T04:41:21.650Z,980.73
2023-05-08T04:41:53.479Z,980.73
2023-05-08T04:42:37.581Z,980.83
2023-05-08T04:43:09.484Z,980.73
2023-05-08T04:43:41.536Z,980.73
2023-05-08T04:44:13.592Z,980.83
2023-05-08T04:44:45.609Z,980.83
2023-05-08T04:45:18.575Z,980.73
2023-05-08T04:45:49.589Z,980.73
2023-05-08T04:46:06.116Z,980.93
2023-05-08T04:46:49.448Z,980.93
2023-05-08T04:47:21.467Z,980.73
2023-05-08T04:47:53.299Z,980.73
2023-05-08T04:48:25.250Z,980.73
2023-05-08T04:48:57.327Z,980.73
2023-05-08T04:49:29.372Z,980.63
2023-05-08T04:50:02.689Z,980.63
2023-05-08T04:50:33.158Z,980.73
2023-05-08T04:51:05.508Z,980.93
2023-05-08T04:51:37.268Z,980.93
2023-05-08T04:52:09.113Z,980.83
2023-05-08T04:52:40.968Z,980.83
2023-05-08T04:53:13.059Z,980.73
2023-05-08T04:53:45.158Z,980.73
2023-05-08T04:54:16.918Z,981.04
2023-05-08T04:54:49.072Z,981.04
2023-05-08T04:55:21.572Z,980.83
2023-05-08T04:55:53.056Z,980.83
2023-05-08T04:56:24.797Z,980.73
2023-05-08T04:56:57.024Z,980.73
2023-05-08T04:57:29.013Z,980.73
2023-05-08T04:58:01.210Z,980.73
2023-05-08T04:58:32.765Z,980.73
2023-05-08T04:59:06.510Z,980.63
2023-05-08T04:59:21.117Z,980.63
2023-05-08T04:59:52.752Z,980.63
2023-05-08T05:00:38.912Z,980.83
2023-05-08T05:01:08.738Z,980.73
2023-05-08T05:01:41.048Z,980.73
2023-05-08T05:02:12.591Z,980.83
2023-05-08T05:02:44.998Z,980.83
2023-05-08T05:03:16.819Z,980.53
2023-05-08T05:03:48.738Z,980.53
2023-05-08T05:04:20.867Z,980.73
2023-05-08T05:04:52.881Z,980.73
2023-05-08T05:05:24.813Z,980.53
2023-05-08T05:05:56.661Z,980.53
2023-05-08T05:06:28.585Z,980.93
2023-05-08T05:07:00.711Z,980.93
2023-05-08T05:07:32.530Z,980.83
2023-05-08T05:08:05.035Z,980.63
2023-05-08T05:08:20.713Z,980.63
2023-05-08T05:09:04.810Z,980.93
2023-05-08T05:09:36.808Z,980.93
2023-05-08T05:10:09.837Z,980.83
2023-05-08T05:10:40.334Z,980.83
2023-05-08T05:11:12.263Z,980.83
2023-05-08T05:11:44.380Z,980.83
2023-05-08T05:12:16.152Z,980.73
2023-05-08T05:12:48.150Z,980.73
2023-05-08T05:13:20.487Z,980.93
2023-05-08T05:13:52.179Z,980.93
2023-05-08T05:14:24.112Z,980.93
2023-05-08T05:14:56.236Z,980.93
2023-05-08T05:15:30.491Z,980.83
2023-05-08T05:16:00.341Z,980.83
2023-05-08T05:16:31.993Z,980.83
2023-05-08T05:17:04.331Z,981.04
2023-05-08T05:17:20.351Z,981.04
2023-05-08T05:17:51.943Z,981.04
2023-05-08T05:18:36.112Z,980.83
2023-05-08T05:19:07.907Z,980.83
2023-05-08T05:19:39.963Z,980.83
2023-05-08T05:20:12.151Z,980.73
2023-05-08T05:20:44.020Z,980.73
2023-05-08T05:21:15.856Z,980.63
2023-05-08T05:21:47.831Z,980.63
2023-05-08T05:22:19.913Z,980.73
2023-05-08T05:22:51.885Z,980.73
2023-05-08T05:23:24.776Z,980.83
2023-05-08T05:23:55.831Z,980.83
2023-05-08T05:24:27.679Z,980.83
2023-05-08T05:24:59.903Z,980.83
2023-05-08T05:25:31.805Z,980.93
2023-05-08T05:26:04.235Z,980.83
2023-05-08T05:26:19.807Z,980.83
2023-05-08T05:27:04.494Z,980.73
2023-05-08T05:27:35.832Z,980.73
2023-05-08T05:28:07.432Z,981.14
2023-05-08T05:28:42.481Z,981.14
2023-05-08T05:29:11.564Z,980.93
2023-05-08T05:29:43.624Z,980.93
2023-05-08T05:30:17.429Z,980.83
2023-05-08T05:30:47.548Z,980.83
2023-05-08T05:31:19.610Z,980.93
2023-05-08T05:31:51.641Z,980.93
2023-05-08T05:32:23.422Z,980.93
2023-05-08T05:32:55.460Z,980.93
2023-05-08T05:33:28.860Z,980.93
2023-05-08T05:33:59.550Z,980.93
2023-05-08T05:34:31.117Z,980.93
2023-05-08T05:35:06.340Z,980.93
2023-05-08T05:35:19.444Z,980.93
2023-05-08T05:35:51.541Z,980.93
2023-05-08T05:36:35.612Z,981.04
2023-05-08T05:37:07.142Z,980.93
2023-05-08T05:37:39.295Z,980.93
2023-05-08T05:38:11.169Z,981.04
2023-05-08T05:38:43.091Z,981.04
2023-05-08T05:39:15.129Z,980.83
2023-05-08T05:39:47.165Z,980.83
2023-05-08T05:40:09.383Z,980.93
2023-05-08T05:40:47.160Z,980.93
2023-05-08T05:41:19.182Z,981.24
2023-05-08T05:41:51.107Z,981.24
2023-05-08T05:42:23.009Z,980.93
2023-05-08T05:42:55.148Z,980.93
2023-05-08T05:43:27.078Z,981.04
2023-05-08T05:44:00.515Z,981.04
2023-05-08T05:44:31.233Z,981.24
2023-05-08T05:45:06.013Z,980.93
2023-05-08T05:45:35.175Z,980.93
2023-05-08T05:46:06.964Z,981.04
2023-05-08T05:46:38.887Z,981.04
2023-05-08T05:47:11.158Z,981.14
2023-05-08T05:47:42.962Z,981.14
2023-05-08T05:48:14.698Z,980.93
2023-05-08T05:48:46.753Z,980.93
2023-05-08T05:49:18.893Z,981.14
2023-05-08T05:49:50.987Z,981.14
2023-05-08T05:50:24.202Z,981.04
2023-05-08T05:50:54.827Z,981.04
2023-05-08T05:51:26.793Z,980.93
2023-05-08T05:51:58.563Z,980.93
2023-05-08T05:52:30.727Z,981.24
2023-05-08T05:53:03.386Z,980.93
2023-05-08T05:53:34.623Z,980.93
2023-05-08T05:54:06.825Z,981.04
2023-05-08T05:54:38.332Z,981.04
2023-05-08T05:55:17.328Z,981.04
2023-05-08T05:55:42.600Z,981.04
2023-05-08T05:56:14.575Z,980.93
2023-05-08T05:56:46.556Z,980.93
2023-05-08T05:57:03.192Z,981.04
2023-05-08T05:57:46.351Z,981.04
2023-05-08T05:58:18.380Z,981.24
2023-05-08T05:58:50.495Z,981.24
2023-05-08T05:59:22.121Z,981.34
2023-05-08T05:59:54.928Z,981.34
2023-05-08T06:00:31.874Z,980.93
2023-05-08T06:00:58.175Z,980.93
2023-05-08T06:01:30.304Z,980.83
2023-05-08T06:02:02.806Z,981.04
2023-05-08T06:02:34.296Z,981.04
2023-05-08T06:03:06.417Z,981.04
2023-05-08T06:03:38.124Z,981.04
2023-05-08T06:04:10.185Z,981.04
2023-05-08T06:04:42.094Z,981.04
2023-05-08T06:05:14.669Z,981.14
2023-05-08T06:05:46.141Z,981.14
2023-05-08T06:06:17.947Z,981.04
2023-05-08T06:06:49.952Z,981.04
2023-05-08T06:07:21.967Z,980.83
2023-05-08T06:07:53.825Z,980.83
2023-05-08T06:08:10.209Z,981.04
2023-05-08T06:08:41.720Z,981.04
2023-05-08T06:09:25.950Z,981.04
2023-05-08T06:09:57.946Z,981.04
2023-05-08T06:10:30.307Z,981.04
2023-05-08T06:11:04.498Z,981.04
2023-05-08T06:11:33.910Z,981.04
2023-05-08T06:12:06.151Z,981.04
2023-05-08T06:12:37.702Z,981.04
2023-05-08T06:13:10.055Z,981.24
2023-05-08T06:13:41.753Z,981.24
2023-05-08T06:14:13.722Z,981.04
2023-05-08T06:14:45.760Z,981.04
2023-05-08T06:15:04.499Z,980.83
2023-05-08T06:15:45.726Z,980.83
2023-05-08T06:16:17.748Z,981.24
2023-05-08T06:16:49.715Z,981.24
2023-05-08T06:17:21.469Z,981.14
2023-05-08T06:17:53.637Z,981.14
2023-05-08T06:18:25.456Z,981.04
2023-05-08T06:18:57.585Z,981.04
2023-05-08T06:19:29.552Z,981.04
2023-05-08T06:20:01.774Z,981.04
2023-05-08T06:20:33.558Z,981.04
2023-05-08T06:21:05.895Z,981.04
2023-05-08T06:21:37.354Z,981.04
2023-05-08T06:22:09.529Z,981.04
2023-05-08T06:22:41.329Z,981.04
2023-05-08T06:23:13.280Z,981.04
2023-05-08T06:23:47.311Z,981.04
2023-05-08T06:24:01.528Z,980.93
2023-05-08T06:24:33.161Z,980.93
2023-05-08T06:24:49.472Z,980.93
2023-05-08T06:25:21.771Z,980.93
2023-05-08T06:25:53.064Z,980.93
2023-05-08T06:26:25.233Z,981.04
2023-05-08T06:26:57.114Z,981.04
2023-05-08T06:27:29.348Z,981.24
2023-05-08T06:28:01.343Z,981.24
2023-05-08T06:28:38.226Z,981.04
2023-05-08T06:29:05.598Z,981.41
2023-05-08T06:29:37.121Z,981.41
2023-05-08T06:30:10.369Z,981.04
2023-05-08T06:30:40.990Z,981.04
2023-05-08T06:31:14.718Z,981.24
2023-05-08T06:31:45.117Z,981.24
2023-05-08T06:32:16.785Z,981.14
2023-05-08T06:32:48.981Z,981.14
2023-05-08T06:33:21.009Z,981.14